createdAt,value
2022-10-20T00:02:29.768Z,30.40
2022-10-20T00:04:59.676Z,29.73
2022-10-20T00:07:29.627Z,33.40
2022-10-20T00:10:04.565Z,32.45
2022-10-20T00:12:35.002Z,33.85
2022-10-20T00:15:12.230Z,30.30
2022-10-20T00:17:42.185Z,32.47
2022-10-20T00:22:50.175Z,36.97
2022-10-20T00:25:24.075Z,39.10
2022-10-20T00:27:56.725Z,39.63
2022-10-20T00:30:26.676Z,36.80
2022-10-20T00:32:56.605Z,33.40
2022-10-20T00:35:26.393Z,37.25
2022-10-20T00:37:56.313Z,34.78
2022-10-20T00:40:26.489Z,36.55
2022-10-20T00:42:56.371Z,32.22
2022-10-20T00:45:26.459Z,35.47
2022-10-20T00:48:01.063Z,32.92
2022-10-20T00:50:35.396Z,35.58
2022-10-20T00:53:05.607Z,35.58
2022-10-20T00:55:39.509Z,32.30
2022-10-20T00:58:09.519Z,37.70
2022-10-20T01:00:42.440Z,36.45
2022-10-20T01:03:19.757Z,34.55
2022-10-20T01:05:55.021Z,36.38
2022-10-20T01:08:25.271Z,36.58
2022-10-20T01:11:16.702Z,38.88
2022-10-20T01:14:25.331Z,34.17
2022-10-20T01:17:34.556Z,40.47
2022-10-20T01:20:28.498Z,38.40
2022-10-20T01:23:32.020Z,37.80
2022-10-20T01:26:36.305Z,40.55
2022-10-20T01:29:35.271Z,40.22
2022-10-20T01:32:26.827Z,52.38
2022-10-20T01:35:10.528Z,50.72
2022-10-20T01:38:04.386Z,50.78
2022-10-20T01:40:57.022Z,46.88
2022-10-20T01:43:30.670Z,45.00
2022-10-20T01:46:02.291Z,49.08
2022-10-20T01:48:35.436Z,44.08
2022-10-20T01:51:08.271Z,41.15
2022-10-20T01:53:38.681Z,38.42
2022-10-20T01:56:16.785Z,42.30
2022-10-20T01:59:02.793Z,45.85
2022-10-20T02:02:02.613Z,40.72
2022-10-20T02:04:54.406Z,42.28
2022-10-20T02:07:31.190Z,41.88
2022-10-20T02:10:22.993Z,40.13
2022-10-20T02:13:00.723Z,40.20
2022-10-20T02:15:32.992Z,39.28
2022-10-20T02:18:07.956Z,38.90
2022-10-20T02:20:38.582Z,39.47
2022-10-20T02:23:09.784Z,41.20
2022-10-20T02:25:41.686Z,40.97
2022-10-20T02:28:16.045Z,43.08
2022-10-20T02:30:48.077Z,41.17
2022-10-20T02:33:20.796Z,42.75
2022-10-20T02:35:57.959Z,40.67
2022-10-20T02:38:28.279Z,44.30
2022-10-20T02:43:27.573Z,42.88
2022-10-20T02:45:58.217Z,44.20
2022-10-20T02:48:28.055Z,41.17
2022-10-20T02:50:57.865Z,46.72
2022-10-20T02:53:28.049Z,43.17
2022-10-20T02:55:58.041Z,40.88
2022-10-20T02:58:29.304Z,41.80
2022-10-20T03:00:59.166Z,44.03
2022-10-20T03:03:29.203Z,45.30
2022-10-20T03:05:59.121Z,44.50
2022-10-20T03:08:29.043Z,45.40
2022-10-20T03:10:58.981Z,46.25
2022-10-20T03:15:59.543Z,45.30
2022-10-20T03:18:29.681Z,45.53
2022-10-20T03:20:59.623Z,48.35
2022-10-20T03:23:31.369Z,45.55
2022-10-20T03:26:10.665Z,49.80
2022-10-20T03:28:41.750Z,49.00
2022-10-20T03:31:12.591Z,50.38
2022-10-20T03:33:42.475Z,50.10
2022-10-20T03:36:13.075Z,49.22
2022-10-20T03:38:47.725Z,50.75
2022-10-20T03:41:17.658Z,49.97
2022-10-20T03:43:49.340Z,50.70
2022-10-20T03:46:19.687Z,46.28
2022-10-20T03:48:49.778Z,53.95
2022-10-20T03:51:19.752Z,51.40
2022-10-20T03:53:49.632Z,55.13
2022-10-20T03:56:22.673Z,48.50
2022-10-20T03:58:53.343Z,47.67
2022-10-20T04:01:34.840Z,50.80
2022-10-20T04:04:04.717Z,49.83
2022-10-20T04:06:34.886Z,46.72
2022-10-20T04:11:36.582Z,46.97
2022-10-20T04:16:37.138Z,36.75
2022-10-20T04:19:07.702Z,38.42
2022-10-20T04:21:38.038Z,39.67
2022-10-20T04:24:09.708Z,37.85
2022-10-20T04:26:40.147Z,40.50
2022-10-20T04:29:10.461Z,39.60
2022-10-20T04:31:43.166Z,39.22
2022-10-20T04:34:15.516Z,38.40
2022-10-20T04:36:45.921Z,45.28
2022-10-20T04:39:17.182Z,44.90
2022-10-20T04:41:47.694Z,43.63
2022-10-20T04:44:18.759Z,46.45
2022-10-20T04:46:49.152Z,43.13
2022-10-20T04:49:19.586Z,38.45
2022-10-20T04:51:50.024Z,45.30
2022-10-20T04:54:20.466Z,46.35
2022-10-20T04:56:51.657Z,45.45
2022-10-20T04:59:22.198Z,43.88
2022-10-20T05:01:54.833Z,43.38
2022-10-20T05:04:25.417Z,41.92
2022-10-20T05:06:55.759Z,40.58
2022-10-20T05:09:26.281Z,42.65
2022-10-20T05:11:56.536Z,36.80
2022-10-20T05:14:26.819Z,33.75
2022-10-20T05:16:57.654Z,33.92
2022-10-20T05:19:27.956Z,35.58
2022-10-20T05:21:58.763Z,28.05
2022-10-20T05:24:30.140Z,33.50
2022-10-20T05:27:02.550Z,35.40
2022-10-20T05:29:33.589Z,29.38
2022-10-20T05:32:07.212Z,28.95
2022-10-20T05:34:37.715Z,29.35
2022-10-20T05:37:08.042Z,29.13
2022-10-20T05:39:38.346Z,28.02
2022-10-20T05:42:09.511Z,28.58
2022-10-20T05:44:40.529Z,31.35
2022-10-20T05:47:10.951Z,30.10
2022-10-20T05:49:41.469Z,31.00
2022-10-20T05:52:14.822Z,31.77
2022-10-20T05:54:45.330Z,32.97
2022-10-20T05:57:15.725Z,31.77
2022-10-20T05:59:46.306Z,31.92
2022-10-20T06:02:25.335Z,39.13
2022-10-20T06:04:55.738Z,36.83
2022-10-20T06:07:26.619Z,31.98
2022-10-20T06:09:57.025Z,30.15
2022-10-20T06:12:27.507Z,30.80
2022-10-20T06:14:57.770Z,30.90
2022-10-20T06:17:28.748Z,27.92
2022-10-20T06:19:59.095Z,30.42
2022-10-20T06:22:29.464Z,27.92
2022-10-20T06:24:59.907Z,27.38
2022-10-20T06:27:30.367Z,28.40
2022-10-20T06:30:00.737Z,28.55
2022-10-20T06:32:31.490Z,24.30
2022-10-20T06:35:02.016Z,26.05
2022-10-20T06:37:32.545Z,26.05
2022-10-20T06:40:02.874Z,22.27
2022-10-20T06:42:33.773Z,20.38
2022-10-20T06:45:04.460Z,21.02
2022-10-20T06:47:35.343Z,19.77
2022-10-20T06:50:05.702Z,17.52
2022-10-20T06:55:10.309Z,19.98
2022-10-20T06:57:40.357Z,18.42
2022-10-20T07:00:10.874Z,17.60
2022-10-20T07:02:41.562Z,18.67
2022-10-20T07:05:13.111Z,17.98
2022-10-20T07:07:43.490Z,17.38
2022-10-20T07:10:13.380Z,17.20
2022-10-20T07:12:43.566Z,16.48
2022-10-20T07:15:13.614Z,17.80
2022-10-20T07:17:43.565Z,18.30
2022-10-20T07:22:42.957Z,17.30
2022-10-20T07:25:12.871Z,15.95
2022-10-20T07:30:12.597Z,14.27
2022-10-20T07:32:42.678Z,13.77
2022-10-20T07:35:12.562Z,18.15
2022-10-20T07:40:16.130Z,24.92
2022-10-20T07:42:46.136Z,30.77
2022-10-20T07:47:47.622Z,24.90
2022-10-20T07:50:18.158Z,25.58
2022-10-20T07:52:52.423Z,26.38
2022-10-20T07:55:38.291Z,24.35
2022-10-20T07:58:09.276Z,24.20
2022-10-20T08:03:11.315Z,25.05
2022-10-20T08:05:41.258Z,23.40
2022-10-20T08:10:40.497Z,25.23
2022-10-20T08:13:10.690Z,22.65
2022-10-20T08:15:50.503Z,21.42
2022-10-20T08:18:23.084Z,21.65
2022-10-20T08:20:52.904Z,24.88
2022-10-20T08:23:22.892Z,20.88
2022-10-20T08:28:27.123Z,22.05
2022-10-20T08:30:57.099Z,21.38
2022-10-20T08:35:57.641Z,21.58
2022-10-20T08:38:27.559Z,23.17
2022-10-20T08:43:28.488Z,21.57
2022-10-20T08:45:59.680Z,20.50
2022-10-20T08:48:34.623Z,20.85
2022-10-20T08:51:04.539Z,22.88
2022-10-20T08:56:12.071Z,21.35
2022-10-20T08:58:46.179Z,20.42
2022-10-20T09:01:24.890Z,20.20
2022-10-20T09:04:21.644Z,19.58
2022-10-20T09:06:58.808Z,20.85
2022-10-20T09:09:32.965Z,22.77
2022-10-20T09:12:15.096Z,21.95
2022-10-20T09:14:45.068Z,21.27
2022-10-20T09:19:57.761Z,21.85
2022-10-20T09:22:35.529Z,20.50
2022-10-20T09:25:08.161Z,21.33
2022-10-20T09:27:41.480Z,20.83
2022-10-20T09:30:27.570Z,21.10
2022-10-20T09:32:57.589Z,20.30
2022-10-20T09:35:32.857Z,19.67
2022-10-20T09:38:26.670Z,20.30
2022-10-20T09:41:24.443Z,20.77
2022-10-20T09:44:02.445Z,21.45
2022-10-20T09:46:39.537Z,20.42
2022-10-20T09:49:10.407Z,19.92
2022-10-20T09:51:40.483Z,20.75
2022-10-20T09:54:20.583Z,21.00
2022-10-20T09:56:51.632Z,19.48
2022-10-20T09:59:38.257Z,21.48
2022-10-20T10:02:30.526Z,22.08
2022-10-20T10:05:18.184Z,20.98
2022-10-20T10:07:58.688Z,19.15
2022-10-20T10:10:32.957Z,19.23
2022-10-20T10:15:41.284Z,21.83
2022-10-20T10:18:25.175Z,21.17
2022-10-20T10:21:08.039Z,21.42
2022-10-20T10:23:51.667Z,20.27
2022-10-20T10:26:56.881Z,19.27
2022-10-20T10:29:37.130Z,20.55
2022-10-20T10:32:19.781Z,19.77
2022-10-20T10:35:27.294Z,18.60
2022-10-20T10:37:57.935Z,20.02
2022-10-20T10:40:42.824Z,21.95
2022-10-20T10:43:35.027Z,22.30
2022-10-20T10:46:29.248Z,22.23
2022-10-20T10:49:18.067Z,22.75
2022-10-20T10:52:18.118Z,20.27
2022-10-20T10:58:08.275Z,19.92
2022-10-20T11:01:04.215Z,22.90
2022-10-20T11:04:04.451Z,23.80
2022-10-20T11:09:48.977Z,21.70
2022-10-20T11:12:49.260Z,23.88
2022-10-20T11:15:46.985Z,24.25
2022-10-20T11:18:39.122Z,25.90
2022-10-20T11:21:39.964Z,25.40
2022-10-20T11:24:36.144Z,26.27
2022-10-20T11:27:23.121Z,22.63
2022-10-20T11:30:18.444Z,24.45
2022-10-20T11:33:00.487Z,26.95
2022-10-20T11:35:50.917Z,25.35
2022-10-20T11:38:37.809Z,26.00
2022-10-20T11:41:36.586Z,27.92
2022-10-20T11:44:37.419Z,26.33
2022-10-20T11:47:14.329Z,28.77
2022-10-20T11:49:45.703Z,37.28
2022-10-20T11:52:45.739Z,42.90
2022-10-20T11:55:51.891Z,36.90
2022-10-20T11:58:52.067Z,37.75
2022-10-20T12:04:37.272Z,34.08
2022-10-20T12:07:42.815Z,94.60
2022-10-20T12:10:30.723Z,36.85
2022-10-20T12:13:32.995Z,66.78
2022-10-20T12:16:05.686Z,42.55
2022-10-20T12:18:38.205Z,49.17
2022-10-20T12:21:13.310Z,36.33
2022-10-20T12:24:07.366Z,33.25
2022-10-20T12:26:44.605Z,35.97
2022-10-20T12:29:44.516Z,32.70
2022-10-20T12:32:37.772Z,35.85
2022-10-20T12:35:31.972Z,32.85
2022-10-20T12:38:05.710Z,34.80
2022-10-20T12:40:49.762Z,36.10
2022-10-20T12:43:34.405Z,39.10
2022-10-20T12:46:13.858Z,40.75
2022-10-20T12:48:48.307Z,35.30
2022-10-20T12:51:27.113Z,36.40
2022-10-20T12:54:01.811Z,37.55
2022-10-20T12:56:39.857Z,40.67
2022-10-20T12:59:36.523Z,43.45
2022-10-20T13:02:36.202Z,57.35
2022-10-20T13:05:42.705Z,52.85
2022-10-20T13:08:34.410Z,57.35
2022-10-20T13:11:36.788Z,73.90
2022-10-20T13:14:36.572Z,99.85
2022-10-20T13:17:24.008Z,95.13
2022-10-20T13:20:01.146Z,151.63
2022-10-20T13:22:49.970Z,101.50
2022-10-20T13:25:38.196Z,53.65
2022-10-20T13:28:31.086Z,39.35
2022-10-20T13:31:13.224Z,29.30
2022-10-20T13:34:18.345Z,28.60
2022-10-20T13:37:22.731Z,30.88
2022-10-20T13:40:30.970Z,138.23
2022-10-20T13:43:19.889Z,47.85
2022-10-20T13:46:11.109Z,45.58
2022-10-20T13:49:08.727Z,48.85
2022-10-20T13:51:52.215Z,41.15
2022-10-20T13:54:33.083Z,43.83
2022-10-20T13:57:03.589Z,42.13
2022-10-20T13:59:34.094Z,45.65
2022-10-20T14:02:25.126Z,45.00
2022-10-20T14:05:15.443Z,63.95
2022-10-20T14:10:37.508Z,59.75
2022-10-20T14:13:12.438Z,49.20
2022-10-20T14:15:47.061Z,45.83
2022-10-20T14:18:28.776Z,47.83
2022-10-20T14:21:06.132Z,45.60
2022-10-20T14:23:43.627Z,64.72
2022-10-20T14:26:19.138Z,50.00
2022-10-20T14:28:51.977Z,54.35
2022-10-20T14:31:25.444Z,48.08
2022-10-20T14:33:56.822Z,91.28
2022-10-20T14:36:30.813Z,48.08
2022-10-20T14:39:02.734Z,54.80
2022-10-20T14:41:36.787Z,70.35
2022-10-20T14:44:20.410Z,74.93
2022-10-20T14:47:06.534Z,54.33
2022-10-20T14:49:41.633Z,43.15
2022-10-20T14:52:24.654Z,52.20
2022-10-20T14:54:54.974Z,50.05
2022-10-20T15:00:22.905Z,47.38
2022-10-20T15:02:58.452Z,52.67
2022-10-20T15:05:50.257Z,51.47
2022-10-20T15:08:28.123Z,55.55
2022-10-20T15:10:59.306Z,38.38
2022-10-20T15:13:34.095Z,38.92
2022-10-20T15:16:06.383Z,40.50
2022-10-20T15:18:39.404Z,41.80
2022-10-20T15:21:12.802Z,39.63
2022-10-20T15:23:42.650Z,43.58
2022-10-20T15:26:16.469Z,50.13
2022-10-20T15:28:49.991Z,52.83
2022-10-20T15:31:32.395Z,47.20
2022-10-20T15:34:02.473Z,50.80
2022-10-20T15:36:40.373Z,51.88
2022-10-20T15:39:13.872Z,71.40
2022-10-20T15:41:44.100Z,51.67
2022-10-20T15:44:21.078Z,48.17
2022-10-20T15:46:54.101Z,46.22
2022-10-20T15:49:25.757Z,68.07
2022-10-20T15:51:55.704Z,71.65
2022-10-20T15:54:26.086Z,64.55
2022-10-20T15:56:57.631Z,74.53
2022-10-20T15:59:31.265Z,68.47
2022-10-20T16:02:02.558Z,80.00
2022-10-20T16:04:33.434Z,47.75
2022-10-20T16:07:03.787Z,43.97
2022-10-20T16:09:33.723Z,42.50
2022-10-20T16:12:03.854Z,46.17
2022-10-20T16:14:34.861Z,67.38
2022-10-20T16:17:04.828Z,40.22
2022-10-20T16:19:35.223Z,48.67
2022-10-20T16:22:05.149Z,42.83
2022-10-20T16:24:35.140Z,42.42
2022-10-20T16:27:07.444Z,39.15
2022-10-20T16:29:38.309Z,39.50
2022-10-20T16:32:08.218Z,61.88
2022-10-20T16:34:38.508Z,51.50
2022-10-20T16:39:38.269Z,53.85
2022-10-20T16:42:08.864Z,68.63
2022-10-20T16:44:38.847Z,73.15
2022-10-20T16:47:09.450Z,58.53
2022-10-20T16:49:39.751Z,51.85
2022-10-20T16:52:09.714Z,48.92
2022-10-20T16:57:14.859Z,48.72
2022-10-20T16:59:46.997Z,44.22
2022-10-20T17:02:18.825Z,45.22
2022-10-20T17:04:52.605Z,45.25
2022-10-20T17:07:22.752Z,46.53
2022-10-20T17:09:52.740Z,42.03
2022-10-20T17:12:23.232Z,41.60
2022-10-20T17:14:53.188Z,41.30
2022-10-20T17:17:23.145Z,38.92
2022-10-20T17:19:57.127Z,39.80
2022-10-20T17:22:27.157Z,42.30
2022-10-20T17:25:04.141Z,43.85
2022-10-20T17:27:34.050Z,45.10
2022-10-20T17:30:04.185Z,42.85
2022-10-20T17:32:34.123Z,41.75
2022-10-20T17:35:04.728Z,43.42
2022-10-20T17:40:04.185Z,40.75
2022-10-20T17:42:35.949Z,41.58
2022-10-20T17:45:06.260Z,41.30
2022-10-20T17:50:05.928Z,41.08
2022-10-20T17:52:36.354Z,40.70
2022-10-20T17:55:06.952Z,40.78
2022-10-20T18:00:11.068Z,39.20
2022-10-20T18:02:51.208Z,38.38
2022-10-20T18:05:21.658Z,40.83
2022-10-20T18:07:51.451Z,38.83
2022-10-20T18:12:52.812Z,35.15
2022-10-20T18:15:24.785Z,36.15
2022-10-20T18:17:54.909Z,36.13
2022-10-20T18:20:24.803Z,33.40
2022-10-20T18:22:56.056Z,35.45
2022-10-20T18:25:26.145Z,37.22
2022-10-20T18:27:55.940Z,36.42
2022-10-20T18:30:25.775Z,33.75
2022-10-20T18:32:55.756Z,35.83
2022-10-20T18:35:25.905Z,34.17
2022-10-20T18:37:59.662Z,35.13
2022-10-20T18:40:29.564Z,35.05
2022-10-20T18:42:59.347Z,36.50
2022-10-20T18:45:30.675Z,35.45
2022-10-20T18:48:00.372Z,35.92
2022-10-20T18:50:30.980Z,33.95
2022-10-20T18:53:00.915Z,35.00
2022-10-20T18:55:30.775Z,37.90
2022-10-20T18:58:00.753Z,41.33
2022-10-20T19:00:30.806Z,43.30
2022-10-20T19:03:01.837Z,41.50
2022-10-20T19:05:32.036Z,46.00
2022-10-20T19:08:02.230Z,49.75
2022-10-20T19:10:32.137Z,45.58
2022-10-20T19:13:02.680Z,50.55
2022-10-20T19:15:32.471Z,43.45
2022-10-20T19:18:02.249Z,44.88
2022-10-20T19:20:33.354Z,40.67
2022-10-20T19:23:03.226Z,39.75
2022-10-20T19:25:34.515Z,40.00
2022-10-20T19:28:04.276Z,36.55
2022-10-20T19:30:37.802Z,41.08
2022-10-20T19:33:08.542Z,37.45
2022-10-20T19:35:38.780Z,40.88
2022-10-20T19:38:08.632Z,36.08
2022-10-20T19:40:38.570Z,37.28
2022-10-20T19:43:08.563Z,36.35
2022-10-20T19:45:38.732Z,36.85
2022-10-20T19:48:08.642Z,37.97
2022-10-20T19:50:38.833Z,39.92
2022-10-20T19:53:08.669Z,39.85
2022-10-20T19:55:38.723Z,38.20
2022-10-20T20:00:39.550Z,38.38
2022-10-20T20:03:09.369Z,34.72
2022-10-20T20:05:39.253Z,37.78
2022-10-20T20:08:09.805Z,44.92
2022-10-20T20:10:40.313Z,49.20
2022-10-20T20:15:39.503Z,57.78
2022-10-20T20:18:09.601Z,60.80
2022-10-20T20:20:42.768Z,56.20
2022-10-20T20:23:13.090Z,47.78
2022-10-20T20:28:14.148Z,43.20
2022-10-20T20:30:44.075Z,43.85
2022-10-20T20:33:14.328Z,40.13
2022-10-20T20:35:44.273Z,39.05
2022-10-20T20:38:14.105Z,34.00
2022-10-20T20:40:48.201Z,34.03
2022-10-20T20:43:18.861Z,31.83
2022-10-20T20:45:48.856Z,33.42
2022-10-20T20:48:18.916Z,31.38
2022-10-20T20:50:58.906Z,31.70
2022-10-20T20:53:29.389Z,32.47
2022-10-20T20:58:31.752Z,30.88
2022-10-20T21:01:13.343Z,31.75
2022-10-20T21:03:44.813Z,32.25
2022-10-20T21:06:22.968Z,31.23
2022-10-20T21:08:59.416Z,32.80
2022-10-20T21:11:30.125Z,33.00
2022-10-20T21:14:00.573Z,34.08
2022-10-20T21:19:03.342Z,31.88
2022-10-20T21:21:35.543Z,33.65
2022-10-20T21:24:07.518Z,33.92
2022-10-20T21:26:37.577Z,36.25
2022-10-20T21:29:08.018Z,36.55
2022-10-20T21:34:08.161Z,45.40
2022-10-20T21:39:13.091Z,50.42
2022-10-20T21:41:43.432Z,50.53
2022-10-20T21:44:16.596Z,57.20
2022-10-20T21:46:50.942Z,59.08
2022-10-20T21:49:26.719Z,57.63
2022-10-20T21:51:59.105Z,60.38
2022-10-20T21:54:31.734Z,56.90
2022-10-20T21:57:01.692Z,56.20
2022-10-20T21:59:33.616Z,57.80
2022-10-20T22:02:04.270Z,53.85
2022-10-20T22:04:34.128Z,52.78
2022-10-20T22:07:04.050Z,53.13
2022-10-20T22:09:33.945Z,49.05
2022-10-20T22:12:03.859Z,47.45
2022-10-20T22:14:33.845Z,47.50
2022-10-20T22:17:03.879Z,42.35
2022-10-20T22:19:33.684Z,41.10
2022-10-20T22:22:03.597Z,40.78
2022-10-20T22:24:34.580Z,40.20
2022-10-20T22:27:06.254Z,43.13
2022-10-20T22:29:38.687Z,41.35
2022-10-20T22:32:08.526Z,45.55
2022-10-20T22:34:38.395Z,41.50
2022-10-20T22:37:08.393Z,42.15
2022-10-20T22:39:38.154Z,42.25
2022-10-20T22:42:07.942Z,39.15
2022-10-20T22:44:37.896Z,38.78
2022-10-20T22:47:07.864Z,42.92
2022-10-20T22:49:37.693Z,38.33
2022-10-20T22:52:07.613Z,39.15
2022-10-20T22:54:37.532Z,36.72
2022-10-20T22:57:07.441Z,36.95
2022-10-20T22:59:37.770Z,36.70
2022-10-20T23:02:07.597Z,37.03
2022-10-20T23:04:37.575Z,34.40
2022-10-20T23:07:07.915Z,34.85
2022-10-20T23:09:37.844Z,35.92
2022-10-20T23:12:07.874Z,37.67
2022-10-20T23:14:37.893Z,39.55
2022-10-20T23:17:07.781Z,37.72
2022-10-20T23:19:37.604Z,37.33
2022-10-20T23:22:07.507Z,35.97
2022-10-20T23:24:37.432Z,35.28
2022-10-20T23:27:07.660Z,34.28
2022-10-20T23:29:37.698Z,33.83
2022-10-20T23:32:07.877Z,40.35
2022-10-20T23:34:37.702Z,36.25
2022-10-20T23:37:07.640Z,36.92
2022-10-20T23:39:37.630Z,37.10
2022-10-20T23:42:09.595Z,35.83
2022-10-20T23:44:40.324Z,36.88
2022-10-20T23:47:10.131Z,35.88
2022-10-20T23:49:40.036Z,35.63
2022-10-20T23:52:10.001Z,36.47
2022-10-20T23:54:39.927Z,35.90
2022-10-20T23:57:09.820Z,33.92
2022-10-20T23:59:40.349Z,34.83
